Time;durP1;ratioP1;P1;durP2;ratioP2;P2;SDS_P1;SDS_P2;PMS_P1;PMS_P2;Temp;Humidity;BMP_temperature;BMP_pressure;BME280_temperature;BME280_humidity;BME280_pressure;Samples;Min_cycle;Max_cycle;Signal;HPM_P1;HPM_P2
2021/07/27 00:00:51;;;;;;;11.43;10.33;;;20.60;98.30;;;;;;5174328;23;20734;-86
2021/07/27 00:02:55;;;;;;;10.93;9.13;;;20.60;98.30;;;;;;5175010;23;20904;-86
2021/07/27 00:04:58;;;;;;;10.30;9.20;;;20.60;98.30;;;;;;5174249;23;20455;-85
2021/07/27 00:07:01;;;;;;;12.70;9.10;;;20.50;98.30;;;;;;5173949;23;20423;-85
2021/07/27 00:09:04;;;;;;;8.93;8.03;;;20.50;98.30;;;;;;5174306;22;20444;-86
2021/07/27 00:11:10;;;;;;;9.80;8.83;;;20.40;98.30;;;;;;5173824;23;20511;-85
2021/07/27 00:13:13;;;;;;;10.67;8.63;;;20.50;98.30;;;;;;5173634;23;20908;-87
2021/07/27 00:15:17;;;;;;;10.03;9.03;;;20.50;98.30;;;;;;5174689;23;20519;-87
2021/07/27 00:17:20;;;;;;;10.07;9.07;;;20.60;98.30;;;;;;5174285;23;20479;-85
2021/07/27 00:19:23;;;;;;;12.00;9.33;;;20.50;98.30;;;;;;5174801;22;20857;-86
2021/07/27 00:21:27;;;;;;;10.40;9.10;;;20.50;98.30;;;;;;5173870;23;20428;-85
2021/07/27 00:23:32;;;;;;;10.10;9.20;;;20.50;98.30;;;;;;5174354;23;20455;-87
2021/07/27 00:25:35;;;;;;;9.90;8.87;;;20.50;98.30;;;;;;5174331;23;20428;-85
2021/07/27 00:27:39;;;;;;;10.20;9.20;;;20.60;98.30;;;;;;5174693;23;20420;-86
2021/07/27 00:29:46;;;;;;;9.50;8.50;;;20.60;98.30;;;;;;5174130;22;20542;-86
2021/07/27 00:31:49;;;;;;;12.07;9.30;;;20.60;98.30;;;;;;5173562;23;20786;-86
2021/07/27 00:33:54;;;;;;;10.53;9.37;;;20.60;98.30;;;;;;5174089;23;20478;-85
2021/07/27 00:35:57;;;;;;;9.93;8.93;;;20.60;98.30;;;;;;5174143;23;20937;-85
2021/07/27 00:38:08;;;;;;;10.60;9.10;;;20.60;98.30;;;;;;5173959;23;20515;-87
2021/07/27 00:40:13;;;;;;;9.63;8.60;;;20.60;98.30;;;;;;5173252;22;20442;-85
2021/07/27 00:42:17;;;;;;;10.67;9.30;;;20.60;98.30;;;;;;5173273;23;20495;-85
2021/07/27 00:44:21;;;;;;;10.67;9.67;;;20.60;98.30;;;;;;5173714;23;20432;-86
2021/07/27 00:46:24;;;;;;;10.07;9.17;;;20.70;98.30;;;;;;5173732;23;20443;-86
2021/07/27 00:48:27;;;;;;;10.73;9.00;;;20.50;98.30;;;;;;5173696;23;20755;-86
2021/07/27 00:50:31;;;;;;;9.80;8.90;;;20.30;98.30;;;;;;5173169;22;20471;-86
2021/07/27 00:52:34;;;;;;;9.33;8.40;;;20.30;98.30;;;;;;5173509;23;20432;-86
2021/07/27 00:54:38;;;;;;;9.73;8.83;;;20.30;98.30;;;;;;5173580;23;20515;-85
2021/07/27 00:56:41;;;;;;;12.13;9.70;;;20.40;98.30;;;;;;5173490;23;20447;-85
2021/07/27 00:58:45;;;;;;;11.50;9.17;;;20.50;98.30;;;;;;5173302;22;20559;-85
2021/07/27 01:00:50;;;;;;;10.73;9.63;;;20.60;98.30;;;;;;5172925;23;20431;-85
2021/07/27 01:02:54;;;;;;;11.43;9.80;;;20.70;98.30;;;;;;5173592;23;20424;-85
2021/07/27 01:04:57;;;;;;;12.03;9.57;;;20.60;98.30;;;;;;5174853;23;20470;-85
2021/07/27 01:07:00;;;;;;;10.10;8.87;;;20.60;98.30;;;;;;5174888;23;20526;-85
2021/07/27 01:09:04;;;;;;;10.63;9.63;;;20.60;98.30;;;;;;5174742;22;20470;-85
2021/07/27 01:11:07;;;;;;;11.27;10.17;;;20.50;98.30;;;;;;5174820;23;20438;-85
2021/07/27 01:13:10;;;;;;;11.30;10.00;;;20.60;98.30;;;;;;5175143;23;20427;-85
2021/07/27 01:15:13;;;;;;;11.33;10.10;;;20.60;98.30;;;;;;5174873;23;20494;-85
2021/07/27 01:17:18;;;;;;;11.33;10.23;;;20.60;98.30;;;;;;5175215;23;20419;-86
2021/07/27 01:19:35;;;;;;;11.00;9.60;;;20.60;98.30;;;;;;5167259;22;20527;-85
2021/07/27 01:38:15;;;;;;;10.93;9.83;;;20.10;98.30;;;;;;5175428;23;20408;-85
2021/07/27 01:40:19;;;;;;;11.50;10.30;;;20.10;98.30;;;;;;5175168;22;20439;-85
2021/07/27 01:42:21;;;;;;;11.77;10.63;;;20.10;98.30;;;;;;5174738;23;20429;-85
2021/07/27 01:44:24;;;;;;;11.60;10.40;;;20.00;98.30;;;;;;5174966;23;20420;-85
2021/07/27 01:46:28;;;;;;;11.73;10.53;;;20.00;98.30;;;;;;5174972;23;20431;-85
2021/07/27 01:48:39;;;;;;;13.03;11.40;;;20.00;98.30;;;;;;5174669;23;20543;-86
2021/07/27 01:50:42;;;;;;;11.63;9.73;;;20.10;98.30;;;;;;5174849;23;20931;-85
2021/07/27 01:52:49;;;;;;;18.83;11.67;;;20.20;98.30;;;;;;5174840;23;20434;-85
2021/07/27 01:54:58;;;;;;;11.90;9.80;;;20.10;98.30;;;;;;5175171;23;20917;-86
2021/07/27 01:57:03;;;;;;;12.80;10.60;;;20.10;98.30;;;;;;5175120;23;20422;-85
2021/07/27 01:59:06;;;;;;;11.23;10.10;;;20.00;98.30;;;;;;5175099;22;20472;-85
2021/07/27 02:01:09;;;;;;;11.53;10.00;;;19.90;98.30;;;;;;5175131;23;20489;-85
2021/07/27 02:03:14;;;;;;;12.03;10.13;;;19.90;98.30;;;;;;5175701;23;20917;-85
2021/07/27 02:05:17;;;;;;;11.20;10.00;;;20.00;98.30;;;;;;5174919;23;20427;-85
2021/07/27 02:07:20;;;;;;;12.10;10.87;;;20.00;98.30;;;;;;5175060;23;20424;-85
2021/07/27 02:09:24;;;;;;;12.40;11.10;;;19.90;98.30;;;;;;5174419;22;20463;-85
2021/07/27 02:11:35;;;;;;;13.80;11.10;;;20.00;98.30;;;;;;5174018;23;20507;-85
2021/07/27 02:13:48;;;;;;;12.90;11.20;;;20.00;98.30;;;;;;5174419;23;20497;-85
2021/07/27 02:15:51;;;;;;;12.60;10.13;;;20.00;98.30;;;;;;5173909;22;20955;-84
2021/07/27 02:17:54;;;;;;;11.60;10.47;;;20.00;98.30;;;;;;5174536;23;20420;-85
2021/07/27 02:19:57;;;;;;;12.87;11.53;;;19.90;98.30;;;;;;5174221;22;20997;-85
2021/07/27 02:22:03;;;;;;;14.77;10.60;;;19.90;98.30;;;;;;5174221;23;20760;-85
2021/07/27 02:24:06;;;;;;;14.83;11.20;;;19.90;98.30;;;;;;5174333;23;20451;-85
2021/07/27 02:26:09;;;;;;;11.53;10.33;;;19.80;98.30;;;;;;5174563;23;20451;-85
2021/07/27 02:28:18;;;;;;;11.53;10.33;;;19.80;98.30;;;;;;5174582;23;20439;-85
2021/07/27 02:30:23;;;;;;;13.60;11.50;;;19.80;98.30;;;;;;5174178;22;20510;-85
2021/07/27 02:32:26;;;;;;;11.97;10.77;;;19.80;98.30;;;;;;5173563;23;20503;-85
2021/07/27 02:34:32;;;;;;;12.13;10.90;;;19.70;98.30;;;;;;5174489;23;20459;-85
2021/07/27 02:36:35;;;;;;;12.30;10.13;;;19.70;98.30;;;;;;5174415;23;20936;-85
2021/07/27 02:38:38;;;;;;;14.77;11.47;;;19.60;98.30;;;;;;5174415;22;20447;-84
2021/07/27 02:40:41;;;;;;;11.90;10.60;;;19.60;98.30;;;;;;5174153;23;20427;-85
2021/07/27 02:42:53;;;;;;;14.90;11.90;;;19.50;98.30;;;;;;5174558;23;20503;-84
2021/07/27 02:44:56;;;;;;;12.60;11.30;;;19.30;98.30;;;;;;5174420;23;20459;-85
2021/07/27 02:47:01;;;;;;;11.67;10.43;;;19.30;98.30;;;;;;5166341;23;20442;-85
2021/07/27 02:49:04;;;;;;;12.40;11.10;;;19.30;98.30;;;;;;5174631;22;20531;-84
2021/07/27 02:51:11;;;;;;;13.30;11.90;;;19.30;98.30;;;;;;5173954;23;20420;-84
2021/07/27 02:53:14;;;;;;;13.40;10.87;;;19.30;98.30;;;;;;5174034;23;20424;-85
2021/07/27 02:55:17;;;;;;;14.70;11.57;;;19.30;98.30;;;;;;5174689;23;20420;-83
2021/07/27 02:57:20;;;;;;;12.90;11.70;;;19.30;98.30;;;;;;5166374;23;20432;-85
2021/07/27 02:59:24;;;;;;;12.53;11.23;;;19.30;98.30;;;;;;5174336;22;20776;-85
2021/07/27 03:01:27;;;;;;;14.03;12.53;;;19.30;98.30;;;;;;5173637;23;20737;-85
2021/07/27 03:03:46;;;;;;;13.03;11.73;;;19.30;98.30;;;;;;5162133;22;20431;-85
2021/07/27 03:05:53;;;;;;;14.10;12.63;;;19.40;98.30;;;;;;5165067;23;20412;-85
2021/07/27 03:07:58;;;;;;;13.77;11.20;;;19.40;98.30;;;;;;5173758;23;20426;-85
2021/07/27 03:12:30;;;;;;;13.50;12.13;;;19.40;98.30;;;;;;5110619;23;20514;-85
2021/07/27 03:14:33;;;;;;;14.40;12.07;;;19.40;98.30;;;;;;5174757;23;20408;-85
2021/07/27 03:16:36;;;;;;;13.90;12.40;;;19.40;98.30;;;;;;5174632;23;20507;-85
2021/07/27 03:18:39;;;;;;;16.00;12.33;;;19.30;98.30;;;;;;5184558;22;20449;-85
2021/07/27 03:20:44;;;;;;;16.63;13.27;;;19.30;98.30;;;;;;5165814;23;20539;-85
2021/07/27 03:22:50;;;;;;;13.80;12.40;;;19.30;98.30;;;;;;5173924;23;20459;-85
2021/07/27 03:24:53;;;;;;;12.90;11.70;;;19.30;98.30;;;;;;5174626;23;20412;-85
2021/07/27 03:26:56;;;;;;;17.00;12.77;;;19.30;98.30;;;;;;5174414;22;20503;-85
2021/07/27 03:28:59;;;;;;;13.30;11.90;;;19.30;98.30;;;;;;5174225;22;20928;-85
2021/07/27 03:31:02;;;;;;;13.20;11.90;;;19.40;98.30;;;;;;5173467;23;20507;-85
2021/07/27 03:33:05;;;;;;;13.23;11.90;;;19.40;98.30;;;;;;5165608;23;20428;-85
2021/07/27 03:35:09;;;;;;;16.00;12.50;;;19.40;98.30;;;;;;5173848;23;20420;-85
2021/07/27 03:37:14;;;;;;;12.50;11.30;;;19.40;98.30;;;;;;5174097;23;20419;-85
2021/07/27 03:39:17;;;;;;;16.00;12.73;;;19.40;98.30;;;;;;5166062;22;20844;-84
2021/07/27 03:41:20;;;;;;;13.47;12.17;;;19.30;98.30;;;;;;5165255;23;20759;-85
2021/07/27 03:43:23;;;;;;;12.40;11.10;;;19.30;98.30;;;;;;5174102;23;20455;-85
2021/07/27 03:45:26;;;;;;;14.50;13.00;;;19.30;98.30;;;;;;5174099;23;20499;-85
2021/07/27 03:47:29;;;;;;;18.57;11.80;;;19.20;98.30;;;;;;5174026;23;20427;-83
2021/07/27 03:49:32;;;;;;;13.23;11.90;;;19.20;98.30;;;;;;5173435;22;20847;-84
2021/07/27 03:51:36;;;;;;;13.83;12.33;;;19.20;98.30;;;;;;5173720;23;20420;-85
2021/07/27 03:53:40;;;;;;;14.13;12.27;;;19.30;98.30;;;;;;5174333;23;20422;-84
2021/07/27 03:56:01;;;;;;;13.87;12.00;;;19.30;98.30;;;;;;5165797;23;20510;-84
2021/07/27 03:58:18;;;;;;;13.30;11.63;;;19.20;98.30;;;;;;5162313;22;20442;-85
2021/07/27 04:00:21;;;;;;;13.77;12.47;;;19.20;98.30;;;;;;5174166;22;20448;-85
2021/07/27 04:02:25;;;;;;;14.03;11.70;;;19.20;98.30;;;;;;5165259;23;20428;-85
2021/07/27 04:04:52;;;;;;;14.27;12.77;;;19.20;98.30;;;;;;5165662;23;20428;-85
2021/07/27 04:07:17;;;;;;;15.37;13.00;;;19.20;98.30;;;;;;5174408;22;20913;-85
2021/07/27 04:09:21;;;;;;;14.03;12.63;;;19.20;98.30;;;;;;5173680;22;20446;-85
2021/07/27 04:11:26;;;;;;;16.20;12.13;;;19.20;98.30;;;;;;5173481;23;20428;-84
2021/07/27 04:13:32;;;;;;;14.03;12.63;;;19.30;98.30;;;;;;5165795;23;20447;-85
2021/07/27 04:15:42;;;;;;;13.53;12.10;;;19.30;98.30;;;;;;5173692;23;20511;-85
2021/07/27 04:17:45;;;;;;;14.30;12.83;;;19.20;98.30;;;;;;5174249;23;20495;-85
2021/07/27 04:19:48;;;;;;;13.67;12.40;;;19.30;98.30;;;;;;5165670;22;20809;-85
2021/07/27 04:21:51;;;;;;;12.70;11.50;;;19.20;98.30;;;;;;5183148;23;20764;-85
2021/07/27 04:23:54;;;;;;;16.53;12.70;;;19.20;98.30;;;;;;5173923;23;20424;-85
2021/07/27 04:26:00;;;;;;;14.23;12.90;;;19.30;98.30;;;;;;5173308;23;20477;-85
2021/07/27 04:28:03;;;;;;;13.53;12.13;;;19.30;98.30;;;;;;5174570;23;20893;-85
2021/07/27 04:30:07;;;;;;;13.50;12.10;;;19.40;98.30;;;;;;5173717;22;20474;-84
2021/07/27 04:32:10;;;;;;;14.03;12.43;;;19.40;98.30;;;;;;5173408;22;20427;-84
2021/07/27 04:34:13;;;;;;;12.70;11.40;;;19.40;98.30;;;;;;5174328;23;20424;-85
2021/07/27 04:36:16;;;;;;;13.43;12.03;;;19.40;98.30;;;;;;5173808;23;20438;-85
2021/07/27 04:38:19;;;;;;;13.33;12.07;;;19.40;98.30;;;;;;5173470;23;20813;-85
2021/07/27 04:40:23;;;;;;;13.10;11.70;;;19.50;98.30;;;;;;5165028;22;20447;-85
2021/07/27 04:42:27;;;;;;;13.37;12.07;;;19.50;98.30;;;;;;5173452;23;20758;-83
2021/07/27 04:44:30;;;;;;;14.07;11.10;;;19.50;98.30;;;;;;5173872;23;20434;-84
2021/07/27 04:46:34;;;;;;;13.50;12.10;;;19.60;98.30;;;;;;5173522;23;20462;-84
2021/07/27 04:48:39;;;;;;;12.57;11.40;;;19.60;98.30;;;;;;5173267;22;20424;-84
2021/07/27 04:50:44;;;;;;;17.20;12.53;;;19.60;98.30;;;;;;5173198;23;20454;-85
2021/07/27 04:52:51;;;;;;;13.13;11.83;;;19.60;98.30;;;;;;5174778;23;20423;-84
2021/07/27 04:54:55;;;;;;;14.33;12.37;;;19.60;98.30;;;;;;5173654;23;20442;-84
2021/07/27 04:56:58;;;;;;;15.13;13.50;;;19.70;98.30;;;;;;5173724;22;20908;-84
2021/07/27 04:59:02;;;;;;;16.07;12.20;;;19.70;98.30;;;;;;5174015;22;20447;-84
2021/07/27 05:01:05;;;;;;;18.07;11.30;;;19.70;98.30;;;;;;5164830;23;20470;-84
2021/07/27 05:03:08;;;;;;;15.17;11.90;;;19.70;98.30;;;;;;5173599;23;20419;-84
2021/07/27 05:05:13;;;;;;;13.27;11.97;;;19.80;98.30;;;;;;5173689;23;20431;-84
2021/07/27 05:07:16;;;;;;;13.20;11.90;;;19.90;98.30;;;;;;5173779;23;20429;-84
2021/07/27 05:09:19;;;;;;;12.93;11.57;;;19.90;98.30;;;;;;5164850;22;20472;-86
2021/07/27 05:11:22;;;;;;;13.17;11.80;;;19.80;98.30;;;;;;5164947;23;20756;-85
2021/07/27 05:13:25;;;;;;;13.70;12.30;;;19.80;98.30;;;;;;5173738;23;20424;-87
2021/07/27 05:15:29;;;;;;;13.93;12.47;;;19.90;98.30;;;;;;5173518;23;20452;-83
2021/07/27 05:17:32;;;;;;;14.07;12.60;;;19.90;98.30;;;;;;5165930;23;20792;-83
2021/07/27 05:19:35;;;;;;;12.93;11.60;;;19.80;98.30;;;;;;5173866;22;20451;-83
2021/07/27 05:21:38;;;;;;;14.27;12.80;;;19.70;98.30;;;;;;5172418;23;20476;-83
2021/07/27 05:23:41;;;;;;;13.97;12.13;;;19.70;98.30;;;;;;5172456;23;20498;-83
2021/07/27 05:25:44;;;;;;;13.20;11.93;;;19.80;98.30;;;;;;5170666;23;20427;-83
2021/07/27 05:27:47;;;;;;;13.83;12.40;;;19.70;98.30;;;;;;5172535;23;20439;-83
2021/07/27 05:29:52;;;;;;;15.87;12.93;;;19.80;98.30;;;;;;5172505;22;20451;-83
2021/07/27 05:31:57;;;;;;;13.97;12.47;;;19.90;98.30;;;;;;5171927;23;20447;-83
2021/07/27 05:34:01;;;;;;;14.97;12.17;;;19.90;98.30;;;;;;5172444;23;20419;-82
2021/07/27 05:36:07;;;;;;;13.33;11.73;;;19.90;98.30;;;;;;5172833;23;20545;-83
2021/07/27 05:38:11;;;;;;;14.80;12.37;;;20.00;98.30;;;;;;5173777;23;20469;-83
2021/07/27 05:40:14;;;;;;;16.07;12.67;;;20.10;98.30;;;;;;5174204;22;20523;-83
2021/07/27 05:42:17;;;;;;;13.93;12.37;;;20.20;98.30;;;;;;5165434;23;20440;-83
2021/07/27 05:44:24;;;;;;;13.93;11.10;;;20.20;98.30;;;;;;5165583;23;21035;-83
2021/07/27 05:46:27;;;;;;;13.90;12.40;;;20.30;98.30;;;;;;5173652;23;20470;-83
2021/07/27 05:48:32;;;;;;;13.97;12.47;;;20.30;98.30;;;;;;5173383;23;20917;-82
2021/07/27 05:50:35;;;;;;;16.40;13.57;;;20.50;98.30;;;;;;5165973;23;20507;-83
2021/07/27 05:52:38;;;;;;;15.67;14.00;;;20.40;98.30;;;;;;5167606;23;20803;-83
2021/07/27 05:54:42;;;;;;;16.07;13.17;;;20.30;98.30;;;;;;5167683;23;20431;-83
2021/07/27 05:56:45;;;;;;;14.60;13.20;;;20.30;98.30;;;;;;5167722;23;20454;-82
2021/07/27 05:58:48;;;;;;;18.23;13.43;;;20.20;98.30;;;;;;5167668;22;20424;-83
2021/07/27 06:00:51;;;;;;;15.07;13.47;;;20.30;98.30;;;;;;5179323;23;20420;-83
2021/07/27 06:02:54;;;;;;;17.00;13.57;;;20.20;98.30;;;;;;5179219;23;20747;-83
2021/07/27 06:04:58;;;;;;;16.07;13.50;;;20.30;98.30;;;;;;5168496;23;20451;-83
2021/07/27 06:07:02;;;;;;;16.47;13.50;;;20.30;98.30;;;;;;5175702;23;20498;-83
2021/07/27 06:09:07;;;;;;;14.40;12.97;;;20.30;98.30;;;;;;5167202;22;20475;-83
2021/07/27 06:11:11;;;;;;;17.23;15.43;;;20.40;98.30;;;;;;5170836;23;20430;-83
2021/07/27 06:13:14;;;;;;;16.97;14.80;;;20.40;98.30;;;;;;5175051;23;20412;-83
2021/07/27 06:15:17;;;;;;;17.83;15.57;;;20.40;98.30;;;;;;5175050;23;20412;-83
2021/07/27 06:17:20;;;;;;;19.30;16.27;;;20.30;98.30;;;;;;5174816;23;20420;-83
2021/07/27 06:19:25;;;;;;;18.40;16.30;;;20.20;98.30;;;;;;5166571;22;20812;-83
2021/07/27 06:21:29;;;;;;;19.17;15.80;;;20.30;98.30;;;;;;5166316;23;20450;-83
2021/07/27 06:23:32;;;;;;;19.20;16.53;;;20.30;98.30;;;;;;5166896;23;20511;-84
2021/07/27 06:25:37;;;;;;;18.33;16.43;;;20.30;98.30;;;;;;5174621;22;20474;-83
2021/07/27 06:27:40;;;;;;;20.43;15.80;;;20.40;98.30;;;;;;5175071;23;20420;-83
2021/07/27 06:29:43;;;;;;;17.90;15.97;;;20.40;98.30;;;;;;5172541;22;20444;-83
2021/07/27 06:31:46;;;;;;;18.60;16.73;;;20.50;98.30;;;;;;5174746;23;20424;-82
2021/07/27 06:33:49;;;;;;;22.50;15.93;;;20.50;98.30;;;;;;5165694;23;20431;-83
2021/07/27 06:35:57;;;;;;;18.80;15.70;;;20.40;98.30;;;;;;5166591;23;20428;-82
2021/07/27 06:38:01;;;;;;;20.67;17.17;;;20.30;98.30;;;;;;5175417;23;20870;-83
2021/07/27 06:40:05;;;;;;;18.53;16.53;;;20.30;98.30;;;;;;5166248;22;20506;-83
2021/07/27 06:42:09;;;;;;;18.47;16.27;;;20.30;98.30;;;;;;5166367;23;20944;-83
2021/07/27 06:44:12;;;;;;;19.20;16.57;;;20.40;98.30;;;;;;5174113;22;20758;-84
2021/07/27 06:46:15;;;;;;;19.23;17.23;;;20.50;98.30;;;;;;5174503;23;20428;-83
2021/07/27 06:48:17;;;;;;;20.27;18.07;;;20.50;98.30;;;;;;5174907;23;20617;-83
2021/07/27 06:50:20;;;;;;;17.70;15.87;;;20.50;98.30;;;;;;5174717;22;20836;-83
2021/07/27 06:52:23;;;;;;;18.87;16.73;;;20.50;98.30;;;;;;5166436;23;20913;-83
2021/07/27 06:54:27;;;;;;;18.27;15.60;;;20.50;98.30;;;;;;5174805;23;20416;-83
2021/07/27 06:56:30;;;;;;;18.93;16.13;;;20.50;98.30;;;;;;5175062;23;20427;-82
2021/07/27 06:58:33;;;;;;;20.23;17.20;;;20.60;98.30;;;;;;5174894;23;20499;-83
2021/07/27 07:00:39;;;;;;;18.80;16.10;;;20.60;98.30;;;;;;5175365;23;20428;-83
2021/07/27 07:02:42;;;;;;;19.60;17.37;;;20.70;98.30;;;;;;5166359;23;20443;-83
2021/07/27 07:04:45;;;;;;;17.53;15.73;;;20.80;98.30;;;;;;5166449;23;20455;-83
2021/07/27 07:06:48;;;;;;;20.30;15.80;;;20.90;98.30;;;;;;5166278;23;20488;-83
2021/07/27 07:08:51;;;;;;;17.53;15.60;;;21.10;98.30;;;;;;5166215;22;20432;-83
2021/07/27 07:11:00;;;;;;;19.00;17.00;;;21.20;98.30;;;;;;5166089;23;20435;-83
2021/07/27 07:13:03;;;;;;;19.30;16.93;;;21.30;98.30;;;;;;5166415;23;20408;-83
2021/07/27 07:15:07;;;;;;;18.77;16.90;;;21.30;98.30;;;;;;5166290;23;20928;-82
2021/07/27 07:17:12;;;;;;;20.70;16.47;;;21.30;98.30;;;;;;5166324;23;20430;-84
2021/07/27 07:19:15;;;;;;;17.20;15.40;;;21.30;98.30;;;;;;5165798;22;20452;-83
2021/07/27 07:21:18;;;;;;;17.90;16.07;;;21.50;98.30;;;;;;5165621;23;20434;-82
2021/07/27 07:23:22;;;;;;;16.73;14.60;;;21.60;98.30;;;;;;5166016;23;20447;-83
2021/07/27 07:25:25;;;;;;;15.30;13.70;;;21.70;98.30;;;;;;5174580;23;20475;-83
2021/07/27 07:27:29;;;;;;;15.97;13.90;;;21.80;98.30;;;;;;5165977;23;20434;-83
2021/07/27 07:29:32;;;;;;;17.37;14.33;;;21.90;98.30;;;;;;5166156;22;20452;-83
2021/07/27 07:31:35;;;;;;;18.00;14.13;;;21.90;98.30;;;;;;5166963;23;20428;-83
2021/07/27 07:33:38;;;;;;;15.97;13.70;;;22.00;98.30;;;;;;5170137;23;20423;-83
2021/07/27 07:35:41;;;;;;;16.47;14.67;;;22.00;98.30;;;;;;5174872;23;20416;-84
2021/07/27 07:37:44;;;;;;;12.90;11.60;;;21.90;98.30;;;;;;5174803;22;20416;-83
2021/07/27 07:39:47;;;;;;;15.10;13.50;;;21.90;98.30;;;;;;5166211;22;20487;-83
2021/07/27 07:41:51;;;;;;;13.30;10.90;;;22.10;98.30;;;;;;5165751;23;20466;-82
2021/07/27 07:43:55;;;;;;;13.07;10.97;;;22.20;98.30;;;;;;5165842;23;20435;-83
2021/07/27 07:45:58;;;;;;;12.50;11.20;;;22.10;98.30;;;;;;5174138;23;20511;-83
2021/07/27 07:48:01;;;;;;;12.27;10.80;;;22.00;98.30;;;;;;5174233;23;20506;-83
2021/07/27 07:50:05;;;;;;;12.50;11.20;;;21.90;98.30;;;;;;5174143;22;20444;-83
2021/07/27 07:52:08;;;;;;;14.00;12.57;;;21.90;98.30;;;;;;5165464;23;20426;-83
2021/07/27 07:54:11;;;;;;;13.53;12.23;;;21.70;98.30;;;;;;5174114;23;20428;-83
2021/07/27 07:56:14;;;;;;;12.90;11.60;;;21.80;98.30;;;;;;5165689;23;20924;-83
2021/07/27 07:58:16;;;;;;;14.80;12.70;;;21.90;98.30;;;;;;5174268;23;20518;-83
2021/07/27 08:00:23;;;;;;;13.90;12.40;;;21.90;98.30;;;;;;5165841;22;20447;-82
2021/07/27 08:02:26;;;;;;;13.70;12.30;;;21.80;98.30;;;;;;5165424;23;20438;-83
2021/07/27 08:04:29;;;;;;;15.80;13.30;;;21.90;98.30;;;;;;5165602;23;20428;-83
2021/07/27 08:06:32;;;;;;;13.97;12.10;;;22.10;98.30;;;;;;5166206;23;20428;-83
2021/07/27 08:08:36;;;;;;;15.20;13.60;;;22.30;98.30;;;;;;5165503;22;20424;-83
2021/07/27 08:10:42;;;;;;;13.70;12.30;;;22.50;98.30;;;;;;5173434;23;20455;-83
2021/07/27 08:12:46;;;;;;;15.23;13.73;;;22.60;98.30;;;;;;5165583;23;20726;-82
2021/07/27 08:14:49;;;;;;;14.20;12.70;;;22.50;98.30;;;;;;5165369;23;20766;-83
2021/07/27 08:16:55;;;;;;;12.03;10.57;;;22.50;98.30;;;;;;5174070;23;20506;-83
2021/07/27 08:19:00;;;;;;;13.23;11.30;;;22.60;98.30;;;;;;5174071;22;20439;-83
2021/07/27 08:21:16;;;;;;;13.27;11.87;;;22.70;98.30;;;;;;5165497;23;20424;-83
2021/07/27 08:23:19;;;;;;;14.63;12.47;;;22.70;98.30;;;;;;5165675;23;20526;-84
2021/07/27 08:25:22;;;;;;;13.37;12.00;;;22.60;98.30;;;;;;5166084;23;20428;-82
2021/07/27 08:27:25;;;;;;;13.20;11.50;;;22.50;98.30;;;;;;5166033;23;20431;-83
2021/07/27 08:29:29;;;;;;;11.53;10.33;;;22.50;98.30;;;;;;5165730;22;20506;-83
2021/07/27 08:31:32;;;;;;;11.30;10.20;;;22.50;98.30;;;;;;5165332;23;20431;-82
2021/07/27 08:33:36;;;;;;;16.00;12.40;;;22.50;98.30;;;;;;5165312;23;20430;-84
2021/07/27 08:35:39;;;;;;;12.50;11.20;;;22.30;98.30;;;;;;5171812;23;20428;-83
2021/07/27 08:37:42;;;;;;;16.03;13.00;;;22.30;98.30;;;;;;5166084;23;20427;-83
2021/07/27 08:39:45;;;;;;;16.23;13.30;;;22.30;98.30;;;;;;5165757;22;20444;-83
2021/07/27 08:41:52;;;;;;;13.10;11.70;;;22.20;98.30;;;;;;5165437;23;20463;-83
2021/07/27 08:43:55;;;;;;;12.77;11.40;;;22.20;98.30;;;;;;5173854;23;20424;-83
2021/07/27 08:45:58;;;;;;;12.27;11.10;;;22.10;98.30;;;;;;5165857;23;20455;-83
2021/07/27 08:48:06;;;;;;;14.40;13.03;;;22.10;98.30;;;;;;5165831;23;20451;-83
2021/07/27 08:50:11;;;;;;;12.87;11.50;;;22.20;98.30;;;;;;5174052;22;20443;-81
2021/07/27 08:52:14;;;;;;;12.10;10.83;;;22.00;98.30;;;;;;5165512;23;20412;-83
2021/07/27 08:54:17;;;;;;;12.47;11.27;;;21.90;98.30;;;;;;5165643;23;20432;-83
2021/07/27 08:56:20;;;;;;;12.93;10.87;;;21.90;98.30;;;;;;5173733;23;20455;-83
2021/07/27 08:58:23;;;;;;;14.50;12.90;;;21.80;98.30;;;;;;5173893;23;20804;-83
2021/07/27 09:00:27;;;;;;;15.53;11.93;;;21.70;98.30;;;;;;5173482;22;20794;-83
2021/07/27 09:02:31;;;;;;;12.90;11.47;;;21.60;98.30;;;;;;5173676;23;20420;-83
2021/07/27 09:04:34;;;;;;;13.37;11.30;;;21.50;98.30;;;;;;5173982;23;20888;-83
2021/07/27 09:06:39;;;;;;;14.80;11.77;;;21.30;98.30;;;;;;5165655;23;21114;-83
2021/07/27 09:08:42;;;;;;;14.47;12.07;;;21.20;98.30;;;;;;5173320;22;20430;-82
2021/07/27 09:10:45;;;;;;;14.00;12.50;;;21.30;98.30;;;;;;5164885;23;20745;-83
2021/07/27 09:12:53;;;;;;;15.10;13.70;;;21.30;98.30;;;;;;5165110;23;20408;-83
2021/07/27 09:14:56;;;;;;;13.80;12.20;;;21.40;98.30;;;;;;5173791;23;20924;-83
2021/07/27 09:16:59;;;;;;;13.10;11.13;;;21.50;98.30;;;;;;5173570;23;20408;-83
2021/07/27 09:19:02;;;;;;;15.63;11.90;;;21.60;98.30;;;;;;5165365;22;20448;-83
2021/07/27 09:21:05;;;;;;;12.53;11.33;;;21.60;98.30;;;;;;5173223;23;20412;-83
2021/07/27 09:23:16;;;;;;;12.40;11.10;;;21.80;98.30;;;;;;5173749;23;20439;-83
2021/07/27 09:25:22;;;;;;;12.80;11.50;;;22.00;98.30;;;;;;5174787;23;20400;-83
2021/07/27 09:27:28;;;;;;;13.30;10.30;;;22.10;98.30;;;;;;5166977;23;20435;-83
2021/07/27 09:29:32;;;;;;;12.43;11.17;;;22.10;98.30;;;;;;5174848;22;20497;-82
2021/07/27 09:31:35;;;;;;;12.63;11.17;;;22.20;98.30;;;;;;5174518;23;20982;-83
2021/07/27 09:33:38;;;;;;;13.07;11.77;;;22.40;98.30;;;;;;5166277;23;20515;-82
2021/07/27 09:35:42;;;;;;;11.73;10.63;;;22.30;98.30;;;;;;5166958;23;20458;-83
2021/07/27 09:37:45;;;;;;;10.70;9.60;;;22.30;98.30;;;;;;5166912;23;20471;-83
2021/07/27 09:39:49;;;;;;;11.60;10.00;;;22.50;98.30;;;;;;5174973;22;20503;-83
2021/07/27 09:41:59;;;;;;;11.90;10.70;;;22.60;98.30;;;;;;5174564;23;20916;-83
2021/07/27 09:44:05;;;;;;;10.93;9.93;;;22.50;98.30;;;;;;5174801;23;20453;-84
2021/07/27 09:46:08;;;;;;;9.70;8.63;;;22.40;98.30;;;;;;5167006;23;20422;-83
2021/07/27 09:48:11;;;;;;;11.20;9.97;;;22.40;98.30;;;;;;5175300;23;20757;-82
2021/07/27 09:50:15;;;;;;;10.97;9.93;;;22.50;98.30;;;;;;5166736;22;20444;-83
2021/07/27 09:52:18;;;;;;;10.60;9.50;;;22.40;98.30;;;;;;5166537;23;20514;-83
2021/07/27 09:54:23;;;;;;;10.27;9.27;;;22.40;98.30;;;;;;5166860;23;20466;-83
2021/07/27 09:56:27;;;;;;;10.50;9.50;;;22.50;98.30;;;;;;5174884;23;20416;-83
2021/07/27 09:58:31;;;;;;;10.80;9.80;;;22.70;98.30;;;;;;5166441;23;20515;-83
2021/07/27 10:00:38;;;;;;;11.40;9.70;;;22.90;98.30;;;;;;5174980;22;20530;-82
2021/07/27 10:02:44;;;;;;;11.57;10.47;;;23.10;98.30;;;;;;5166469;23;20909;-83
2021/07/27 10:04:52;;;;;;;11.80;10.70;;;23.10;98.30;;;;;;5166538;23;20438;-83
2021/07/27 10:07:18;;;;;;;13.20;11.10;;;23.10;98.30;;;;;;5166540;23;20412;-83
2021/07/27 10:09:25;;;;;;;11.77;10.57;;;23.50;98.30;;;;;;5166666;22;20448;-83
2021/07/27 10:11:40;;;;;;;11.97;10.77;;;23.70;98.30;;;;;;5166255;23;20514;-83
2021/07/27 10:13:46;;;;;;;11.70;10.50;;;23.90;98.30;;;;;;5166519;23;20471;-83
2021/07/27 10:15:49;;;;;;;10.57;8.57;;;24.00;98.30;;;;;;5166939;23;20419;-83
2021/07/27 10:17:53;;;;;;;10.00;9.07;;;23.80;98.30;;;;;;5166200;23;20428;-83
2021/07/27 10:19:58;;;;;;;11.83;10.73;;;23.50;98.30;;;;;;5166499;22;20535;-83
2021/07/27 10:22:03;;;;;;;13.60;11.40;;;23.10;98.30;;;;;;5166484;23;20416;-84
2021/07/27 10:24:19;;;;;;;13.23;11.93;;;23.00;98.30;;;;;;5166451;23;20438;-83
2021/07/27 10:26:26;;;;;;;12.63;11.33;;;22.90;98.30;;;;;;5167408;23;20430;-83
2021/07/27 10:28:30;;;;;;;14.27;12.60;;;22.70;98.30;;;;;;5174932;23;20910;-83
2021/07/27 10:30:35;;;;;;;13.37;12.03;;;22.70;98.30;;;;;;5165733;22;20443;-82
2021/07/27 10:32:40;;;;;;;12.97;11.77;;;22.60;98.30;;;;;;5174252;23;20416;-83
2021/07/27 10:34:43;;;;;;;12.47;11.27;;;22.50;98.30;;;;;;5174930;23;20423;-83
2021/07/27 10:36:47;;;;;;;12.53;11.33;;;22.50;98.30;;;;;;5174502;23;20416;-84
2021/07/27 10:38:50;;;;;;;12.03;9.77;;;22.60;98.30;;;;;;5166055;22;20450;-83
2021/07/27 10:40:53;;;;;;;10.13;9.03;;;22.70;98.30;;;;;;5166523;23;20510;-83
2021/07/27 10:42:57;;;;;;;11.10;9.90;;;22.90;98.30;;;;;;5167709;23;20487;-82
2021/07/27 10:45:01;;;;;;;11.70;9.57;;;22.90;98.30;;;;;;5168298;23;20455;-83
2021/07/27 10:47:04;;;;;;;11.27;10.17;;;23.00;98.30;;;;;;5167184;23;20447;-84
2021/07/27 10:49:16;;;;;;;11.70;10.50;;;23.30;98.30;;;;;;5174529;22;20476;-84
2021/07/27 10:51:23;;;;;;;11.27;10.17;;;23.50;98.30;;;;;;5174350;23;20418;-83